sensor_id;sensor_type;location;lat;lon;timestamp;temperature;humidity
46335;DHT22;32051;48.882;9.210;2023-04-19T00:01:37;10.00;99.90
46335;DHT22;32051;48.882;9.210;2023-04-19T00:04:04;10.00;99.90
46335;DHT22;32051;48.882;9.210;2023-04-19T00:06:30;10.00;99.90
46335;DHT22;32051;48.882;9.210;2023-04-19T00:08:56;10.00;99.90
46335;DHT22;32051;48.882;9.210;2023-04-19T00:11:23;10.00;99.90
46335;DHT22;32051;48.882;9.210;2023-04-19T00:13:48;10.00;99.90
46335;DHT22;32051;48.882;9.210;2023-04-19T00:16:15;9.90;99.90
46335;DHT22;32051;48.882;9.210;2023-04-19T00:18:41;9.90;99.90
46335;DHT22;32051;48.882;9.210;2023-04-19T00:21:07;9.90;99.90
46335;DHT22;32051;48.882;9.210;2023-04-19T00:23:33;9.90;99.90
46335;DHT22;32051;48.882;9.210;2023-04-19T00:26:01;9.90;99.90
46335;DHT22;32051;48.882;9.210;2023-04-19T00:28:27;9.90;99.90
46335;DHT22;32051;48.882;9.210;2023-04-19T00:30:53;9.90;99.90
46335;DHT22;32051;48.882;9.210;2023-04-19T00:33:19;9.90;99.90
46335;DHT22;32051;48.882;9.210;2023-04-19T00:35:45;9.90;99.90
46335;DHT22;32051;48.882;9.210;2023-04-19T00:38:12;9.80;99.90
46335;DHT22;32051;48.882;9.210;2023-04-19T00:40:37;9.80;99.90
46335;DHT22;32051;48.882;9.210;2023-04-19T00:43:04;9.80;99.90
46335;DHT22;32051;48.882;9.210;2023-04-19T00:45:31;9.90;99.90
46335;DHT22;32051;48.882;9.210;2023-04-19T00:47:57;9.80;99.90
46335;DHT22;32051;48.882;9.210;2023-04-19T00:50:23;9.80;99.90
46335;DHT22;32051;48.882;9.210;2023-04-19T00:52:50;9.80;99.90
46335;DHT22;32051;48.882;9.210;2023-04-19T00:55:17;9.80;99.90
46335;DHT22;32051;48.882;9.210;2023-04-19T00:57:43;9.80;99.90
46335;DHT22;32051;48.882;9.210;2023-04-19T01:00:09;9.80;99.90
46335;DHT22;32051;48.882;9.210;2023-04-19T01:02:35;9.80;99.90
46335;DHT22;32051;48.882;9.210;2023-04-19T01:05:01;9.80;99.90
46335;DHT22;32051;48.882;9.210;2023-04-19T01:07:27;9.80;99.90
46335;DHT22;32051;48.882;9.210;2023-04-19T01:09:52;9.70;99.90
46335;DHT22;32051;48.882;9.210;2023-04-19T01:12:20;9.70;99.90
46335;DHT22;32051;48.882;9.210;2023-04-19T01:14:47;9.70;99.90
46335;DHT22;32051;48.882;9.210;2023-04-19T01:17:15;9.70;99.90
46335;DHT22;32051;48.882;9.210;2023-04-19T01:19:42;9.70;99.90
46335;DHT22;32051;48.882;9.210;2023-04-19T01:22:08;9.70;99.90
46335;DHT22;32051;48.882;9.210;2023-04-19T01:24:35;9.70;99.90
46335;DHT22;32051;48.882;9.210;2023-04-19T01:27:00;9.70;99.90
46335;DHT22;32051;48.882;9.210;2023-04-19T01:29:27;9.70;99.90
46335;DHT22;32051;48.882;9.210;2023-04-19T01:31:52;9.60;99.90
46335;DHT22;32051;48.882;9.210;2023-04-19T01:34:18;9.60;99.90
46335;DHT22;32051;48.882;9.210;2023-04-19T01:36:44;9.60;99.90
46335;DHT22;32051;48.882;9.210;2023-04-19T01:39:11;9.60;99.90
46335;DHT22;32051;48.882;9.210;2023-04-19T01:41:38;9.60;99.90
46335;DHT22;32051;48.882;9.210;2023-04-19T01:44:04;9.60;99.90
46335;DHT22;32051;48.882;9.210;2023-04-19T01:46:29;9.60;99.90
46335;DHT22;32051;48.882;9.210;2023-04-19T01:48:55;9.60;99.90
46335;DHT22;32051;48.882;9.210;2023-04-19T01:51:21;9.60;99.90
46335;DHT22;32051;48.882;9.210;2023-04-19T01:53:47;9.60;99.90
46335;DHT22;32051;48.882;9.210;2023-04-19T01:56:18;9.50;99.90
46335;DHT22;32051;48.882;9.210;2023-04-19T01:58:44;9.50;99.90
46335;DHT22;32051;48.882;9.210;2023-04-19T02:01:10;9.50;99.90
46335;DHT22;32051;48.882;9.210;2023-04-19T02:03:40;9.50;99.90
46335;DHT22;32051;48.882;9.210;2023-04-19T02:06:09;9.50;99.90
46335;DHT22;32051;48.882;9.210;2023-04-19T02:08:35;9.40;99.90
46335;DHT22;32051;48.882;9.210;2023-04-19T02:11:10;9.40;99.90
46335;DHT22;32051;48.882;9.210;2023-04-19T02:13:36;9.40;99.90
46335;DHT22;32051;48.882;9.210;2023-04-19T02:16:05;9.40;99.90
46335;DHT22;32051;48.882;9.210;2023-04-19T02:18:32;9.40;99.90
46335;DHT22;32051;48.882;9.210;2023-04-19T02:20:58;9.40;99.90
46335;DHT22;32051;48.882;9.210;2023-04-19T02:23:24;9.40;99.90
46335;DHT22;32051;48.882;9.210;2023-04-19T02:25:50;9.40;99.90
46335;DHT22;32051;48.882;9.210;2023-04-19T02:28:16;9.40;99.90
46335;DHT22;32051;48.882;9.210;2023-04-19T02:30:43;9.40;99.90
46335;DHT22;32051;48.882;9.210;2023-04-19T02:33:08;9.40;99.90
46335;DHT22;32051;48.882;9.210;2023-04-19T02:35:34;9.40;99.90
46335;DHT22;32051;48.882;9.210;2023-04-19T02:38:01;9.40;99.90
46335;DHT22;32051;48.882;9.210;2023-04-19T02:40:27;9.40;99.90
46335;DHT22;32051;48.882;9.210;2023-04-19T02:42:53;9.50;99.90
46335;DHT22;32051;48.882;9.210;2023-04-19T02:45:20;9.50;99.90
46335;DHT22;32051;48.882;9.210;2023-04-19T02:47:46;9.50;99.90
46335;DHT22;32051;48.882;9.210;2023-04-19T02:50:13;9.50;99.90
46335;DHT22;32051;48.882;9.210;2023-04-19T02:52:45;9.40;99.90
46335;DHT22;32051;48.882;9.210;2023-04-19T02:55:11;9.40;99.90
46335;DHT22;32051;48.882;9.210;2023-04-19T02:57:37;9.40;99.90
46335;DHT22;32051;48.882;9.210;2023-04-19T03:00:04;9.40;99.90
46335;DHT22;32051;48.882;9.210;2023-04-19T03:02:31;9.40;99.90
46335;DHT22;32051;48.882;9.210;2023-04-19T03:04:57;9.40;99.90
46335;DHT22;32051;48.882;9.210;2023-04-19T03:07:24;9.40;99.90
46335;DHT22;32051;48.882;9.210;2023-04-19T03:09:50;9.40;99.90
46335;DHT22;32051;48.882;9.210;2023-04-19T03:12:18;9.40;99.90
46335;DHT22;32051;48.882;9.210;2023-04-19T03:14:44;9.30;99.90
46335;DHT22;32051;48.882;9.210;2023-04-19T03:17:10;9.30;99.90
46335;DHT22;32051;48.882;9.210;2023-04-19T03:19:36;9.30;99.90
46335;DHT22;32051;48.882;9.210;2023-04-19T03:22:01;9.30;99.90
46335;DHT22;32051;48.882;9.210;2023-04-19T03:24:29;9.30;99.90
46335;DHT22;32051;48.882;9.210;2023-04-19T03:26:57;9.30;99.90
46335;DHT22;32051;48.882;9.210;2023-04-19T03:29:27;9.30;99.90
46335;DHT22;32051;48.882;9.210;2023-04-19T03:31:59;9.30;99.90
46335;DHT22;32051;48.882;9.210;2023-04-19T03:34:26;9.30;99.90
46335;DHT22;32051;48.882;9.210;2023-04-19T03:36:53;9.30;99.90
46335;DHT22;32051;48.882;9.210;2023-04-19T03:39:19;9.30;99.90
46335;DHT22;32051;48.882;9.210;2023-04-19T03:41:48;9.30;99.90
46335;DHT22;32051;48.882;9.210;2023-04-19T03:44:40;9.30;99.90
46335;DHT22;32051;48.882;9.210;2023-04-19T04:09:14;9.00;99.90
46335;DHT22;32051;48.882;9.210;2023-04-19T04:11:41;9.00;99.90
46335;DHT22;32051;48.882;9.210;2023-04-19T04:14:07;8.90;99.90
46335;DHT22;32051;48.882;9.210;2023-04-19T04:16:35;8.90;99.90
46335;DHT22;32051;48.882;9.210;2023-04-19T04:19:01;8.80;99.90
46335;DHT22;32051;48.882;9.210;2023-04-19T04:21:29;8.80;99.90
46335;DHT22;32051;48.882;9.210;2023-04-19T04:23:58;8.80;99.90
46335;DHT22;32051;48.882;9.210;2023-04-19T04:26:34;8.80;99.90
46335;DHT22;32051;48.882;9.210;2023-04-19T04:29:13;8.70;99.90
46335;DHT22;32051;48.882;9.210;2023-04-19T04:34:06;8.60;99.90
46335;DHT22;32051;48.882;9.210;2023-04-19T04:36:36;8.60;99.90
46335;DHT22;32051;48.882;9.210;2023-04-19T04:39:03;8.50;99.90
46335;DHT22;32051;48.882;9.210;2023-04-19T04:43:57;8.50;99.90
46335;DHT22;32051;48.882;9.210;2023-04-19T04:51:18;8.40;99.90
46335;DHT22;32051;48.882;9.210;2023-04-19T04:58:41;8.40;99.90
46335;DHT22;32051;48.882;9.210;2023-04-19T05:01:11;8.40;99.90
46335;DHT22;32051;48.882;9.210;2023-04-19T05:03:39;8.40;99.90
46335;DHT22;32051;48.882;9.210;2023-04-19T05:06:09;8.50;99.90
46335;DHT22;32051;48.882;9.210;2023-04-19T05:08:35;8.50;99.90
46335;DHT22;32051;48.882;9.210;2023-04-19T05:11:26;8.60;99.90
46335;DHT22;32051;48.882;9.210;2023-04-19T05:13:52;8.70;99.90
46335;DHT22;32051;48.882;9.210;2023-04-19T05:16:17;8.80;99.90
46335;DHT22;32051;48.882;9.210;2023-04-19T05:18:45;8.90;99.90
46335;DHT22;32051;48.882;9.210;2023-04-19T05:21:11;8.90;99.90
46335;DHT22;32051;48.882;9.210;2023-04-19T05:23:38;9.00;99.90
46335;DHT22;32051;48.882;9.210;2023-04-19T05:26:04;9.10;99.90
46335;DHT22;32051;48.882;9.210;2023-04-19T05:28:30;9.10;99.90
46335;DHT22;32051;48.882;9.210;2023-04-19T05:31:03;9.20;99.90
46335;DHT22;32051;48.882;9.210;2023-04-19T05:33:33;9.30;99.90
46335;DHT22;32051;48.882;9.210;2023-04-19T05:35:59;9.30;99.90
46335;DHT22;32051;48.882;9.210;2023-04-19T05:38:25;9.30;99.90
46335;DHT22;32051;48.882;9.210;2023-04-19T05:40:55;9.30;99.90
46335;DHT22;32051;48.882;9.210;2023-04-19T05:43:21;9.30;99.90
46335;DHT22;32051;48.882;9.210;2023-04-19T05:45:46;9.30;99.90
46335;DHT22;32051;48.882;9.210;2023-04-19T05:48:12;9.30;99.90
46335;DHT22;32051;48.882;9.210;2023-04-19T06:05:49;9.70;99.90
46335;DHT22;32051;48.882;9.210;2023-04-19T06:08:16;9.60;99.90
46335;DHT22;32051;48.882;9.210;2023-04-19T06:10:43;9.60;99.90
46335;DHT22;32051;48.882;9.210;2023-04-19T06:13:11;9.70;99.90
46335;DHT22;32051;48.882;9.210;2023-04-19T06:15:37;9.80;99.90
46335;DHT22;32051;48.882;9.210;2023-04-19T06:18:05;9.80;99.90
46335;DHT22;32051;48.882;9.210;2023-04-19T06:20:37;10.00;99.90
46335;DHT22;32051;48.882;9.210;2023-04-19T06:23:04;10.00;99.90
46335;DHT22;32051;48.882;9.210;2023-04-19T06:25:30;10.00;99.90
46335;DHT22;32051;48.882;9.210;2023-04-19T06:27:56;10.10;99.90
46335;DHT22;32051;48.882;9.210;2023-04-19T06:30:21;10.20;99.90
46335;DHT22;32051;48.882;9.210;2023-04-19T06:32:47;10.20;99.90
46335;DHT22;32051;48.882;9.210;2023-04-19T06:35:13;10.30;99.90
46335;DHT22;32051;48.882;9.210;2023-04-19T06:37:39;10.40;99.90
46335;DHT22;32051;48.882;9.210;2023-04-19T06:40:05;10.40;99.90
46335;DHT22;32051;48.882;9.210;2023-04-19T06:42:33;10.40;99.90
46335;DHT22;32051;48.882;9.210;2023-04-19T06:44:59;10.40;99.90
46335;DHT22;32051;48.882;9.210;2023-04-19T06:47:25;10.40;99.90
46335;DHT22;32051;48.882;9.210;2023-04-19T06:49:51;10.40;99.90
46335;DHT22;32051;48.882;9.210;2023-04-19T06:52:17;10.40;99.90
46335;DHT22;32051;48.882;9.210;2023-04-19T06:54:49;10.40;99.90
46335;DHT22;32051;48.882;9.210;2023-04-19T06:57:16;10.40;99.90
46335;DHT22;32051;48.882;9.210;2023-04-19T06:59:43;10.50;99.90
46335;DHT22;32051;48.882;9.210;2023-04-19T07:02:09;10.50;99.90
46335;DHT22;32051;48.882;9.210;2023-04-19T07:04:35;10.60;99.90
46335;DHT22;32051;48.882;9.210;2023-04-19T07:07:02;10.80;99.90
46335;DHT22;32051;48.882;9.210;2023-04-19T07:09:29;10.90;99.90
46335;DHT22;32051;48.882;9.210;2023-04-19T07:11:54;10.90;99.90
46335;DHT22;32051;48.882;9.210;2023-04-19T07:14:20;10.90;99.90
46335;DHT22;32051;48.882;9.210;2023-04-19T07:16:46;10.90;99.90
46335;DHT22;32051;48.882;9.210;2023-04-19T07:19:12;11.10;99.90
46335;DHT22;32051;48.882;9.210;2023-04-19T07:21:38;11.20;99.90
46335;DHT22;32051;48.882;9.210;2023-04-19T07:24:05;11.20;99.90
46335;DHT22;32051;48.882;9.210;2023-04-19T07:26:31;11.20;99.90
46335;DHT22;32051;48.882;9.210;2023-04-19T07:28:58;11.30;99.90
46335;DHT22;32051;48.882;9.210;2023-04-19T07:31:24;11.40;99.90
46335;DHT22;32051;48.882;9.210;2023-04-19T07:33:50;11.50;99.90
46335;DHT22;32051;48.882;9.210;2023-04-19T07:36:16;11.70;99.90
46335;DHT22;32051;48.882;9.210;2023-04-19T07:38:42;11.90;99.90
46335;DHT22;32051;48.882;9.210;2023-04-19T07:41:08;12.00;99.90
46335;DHT22;32051;48.882;9.210;2023-04-19T07:43:34;12.10;99.90
46335;DHT22;32051;48.882;9.210;2023-04-19T07:46:00;12.20;99.90
46335;DHT22;32051;48.882;9.210;2023-04-19T07:48:26;12.40;99.90
46335;DHT22;32051;48.882;9.210;2023-04-19T07:50:52;12.80;99.90
46335;DHT22;32051;48.882;9.210;2023-04-19T08:05:32;14.00;99.90
46335;DHT22;32051;48.882;9.210;2023-04-19T08:07:58;14.10;99.90
46335;DHT22;32051;48.882;9.210;2023-04-19T08:10:24;14.00;99.90
46335;DHT22;32051;48.882;9.210;2023-04-19T08:12:50;14.00;99.90
46335;DHT22;32051;48.882;9.210;2023-04-19T08:20:09;13.80;99.90
46335;DHT22;32051;48.882;9.210;2023-04-19T08:22:36;13.70;99.90
46335;DHT22;32051;48.882;9.210;2023-04-19T08:25:01;13.60;99.90
46335;DHT22;32051;48.882;9.210;2023-04-19T08:27:27;13.50;99.90
46335;DHT22;32051;48.882;9.210;2023-04-19T08:29:53;13.50;99.90
46335;DHT22;32051;48.882;9.210;2023-04-19T08:32:19;13.40;99.90
46335;DHT22;32051;48.882;9.210;2023-04-19T08:34:45;13.30;99.90
46335;DHT22;32051;48.882;9.210;2023-04-19T08:37:10;13.20;99.90
46335;DHT22;32051;48.882;9.210;2023-04-19T08:39:36;12.90;99.90
46335;DHT22;32051;48.882;9.210;2023-04-19T08:42:07;12.80;99.90
46335;DHT22;32051;48.882;9.210;2023-04-19T08:44:34;12.70;99.90
46335;DHT22;32051;48.882;9.210;2023-04-19T08:47:03;12.50;99.90
46335;DHT22;32051;48.882;9.210;2023-04-19T08:49:29;12.40;99.90
46335;DHT22;32051;48.882;9.210;2023-04-19T08:51:59;12.40;99.90
46335;DHT22;32051;48.882;9.210;2023-04-19T08:54:30;12.40;99.90
46335;DHT22;32051;48.882;9.210;2023-04-19T08:56:59;12.30;99.90
46335;DHT22;32051;48.882;9.210;2023-04-19T08:59:27;12.30;99.90
46335;DHT22;32051;48.882;9.210;2023-04-19T09:01:59;12.30;99.90
46335;DHT22;32051;48.882;9.210;2023-04-19T09:04:25;12.40;99.90
46335;DHT22;32051;48.882;9.210;2023-04-19T09:06:51;12.50;99.90
46335;DHT22;32051;48.882;9.210;2023-04-19T09:09:21;12.60;99.90
46335;DHT22;32051;48.882;9.210;2023-04-19T09:11:47;12.70;99.90
46335;DHT22;32051;48.882;9.210;2023-04-19T09:14:15;12.80;99.90
46335;DHT22;32051;48.882;9.210;2023-04-19T09:16:41;12.90;99.90
46335;DHT22;32051;48.882;9.210;2023-04-19T09:19:07;12.80;99.90
46335;DHT22;32051;48.882;9.210;2023-04-19T09:21:34;12.80;99.90
46335;DHT22;32051;48.882;9.210;2023-04-19T09:24:01;12.90;99.90
46335;DHT22;32051;48.882;9.210;2023-04-19T09:26:27;13.30;99.90
46335;DHT22;32051;48.882;9.210;2023-04-19T09:31:23;13.70;99.90
46335;DHT22;32051;48.882;9.210;2023-04-19T09:36:32;14.40;99.90
46335;DHT22;32051;48.882;9.210;2023-04-19T09:38:58;14.80;99.90
46335;DHT22;32051;48.882;9.210;2023-04-19T09:43:51;14.90;99.90
46335;DHT22;32051;48.882;9.210;2023-04-19T09:46:34;14.90;99.90
46335;DHT22;32051;48.882;9.210;2023-04-19T09:51:48;14.70;99.90
46335;DHT22;32051;48.882;9.210;2023-04-19T09:54:16;14.50;99.90
46335;DHT22;32051;48.882;9.210;2023-04-19T09:56:43;14.50;99.90
46335;DHT22;32051;48.882;9.210;2023-04-19T09:59:10;14.40;99.90
46335;DHT22;32051;48.882;9.210;2023-04-19T10:01:43;14.30;99.90
46335;DHT22;32051;48.882;9.210;2023-04-19T10:04:14;14.20;99.90
46335;DHT22;32051;48.882;9.210;2023-04-19T10:09:13;14.00;99.90
46335;DHT22;32051;48.882;9.210;2023-04-19T10:11:39;14.00;99.90
46335;DHT22;32051;48.882;9.210;2023-04-19T10:14:10;14.00;99.90
46335;DHT22;32051;48.882;9.210;2023-04-19T10:16:37;13.90;99.90
46335;DHT22;32051;48.882;9.210;2023-04-19T10:24:15;13.90;99.90
46335;DHT22;32051;48.882;9.210;2023-04-19T10:57:05;13.30;99.90
46335;DHT22;32051;48.882;9.210;2023-04-19T10:59:35;13.40;99.90
46335;DHT22;32051;48.882;9.210;2023-04-19T11:07:18;12.90;99.90
46335;DHT22;32051;48.882;9.210;2023-04-19T11:09:46;12.80;99.90
46335;DHT22;32051;48.882;9.210;2023-04-19T11:12:17;12.70;99.90
46335;DHT22;32051;48.882;9.210;2023-04-19T11:17:15;12.50;99.90
46335;DHT22;32051;48.882;9.210;2023-04-19T11:22:40;12.30;99.90
46335;DHT22;32051;48.882;9.210;2023-04-19T11:25:21;12.10;99.90
46335;DHT22;32051;48.882;9.210;2023-04-19T11:27:50;12.00;99.90
46335;DHT22;32051;48.882;9.210;2023-04-19T11:30:18;11.90;99.90
46335;DHT22;32051;48.882;9.210;2023-04-19T11:32:48;11.80;99.90
46335;DHT22;32051;48.882;9.210;2023-04-19T11:35:18;11.70;99.90
46335;DHT22;32051;48.882;9.210;2023-04-19T11:37:44;11.50;99.90
46335;DHT22;32051;48.882;9.210;2023-04-19T11:40:14;11.40;99.90
46335;DHT22;32051;48.882;9.210;2023-04-19T11:42:40;11.30;99.90
46335;DHT22;32051;48.882;9.210;2023-04-19T11:45:07;11.20;99.90
46335;DHT22;32051;48.882;9.210;2023-04-19T11:47:33;11.10;99.90
46335;DHT22;32051;48.882;9.210;2023-04-19T12:02:41;10.80;99.90
46335;DHT22;32051;48.882;9.210;2023-04-19T13:11:15;10.70;99.90
46335;DHT22;32051;48.882;9.210;2023-04-19T13:13:42;10.90;99.90
46335;DHT22;32051;48.882;9.210;2023-04-19T13:16:07;10.90;99.90
46335;DHT22;32051;48.882;9.210;2023-04-19T13:20:59;11.00;99.90
46335;DHT22;32051;48.882;9.210;2023-04-19T13:23:25;11.10;99.90
46335;DHT22;32051;48.882;9.210;2023-04-19T13:25:51;11.20;99.90
46335;DHT22;32051;48.882;9.210;2023-04-19T13:30:42;11.20;99.90
46335;DHT22;32051;48.882;9.210;2023-04-19T13:33:08;11.10;99.90
46335;DHT22;32051;48.882;9.210;2023-04-19T13:38:00;11.30;99.90
46335;DHT22;32051;48.882;9.210;2023-04-19T13:40:25;11.30;99.90
46335;DHT22;32051;48.882;9.210;2023-04-19T13:42:51;11.30;99.90
46335;DHT22;32051;48.882;9.210;2023-04-19T13:45:18;11.40;99.90
46335;DHT22;32051;48.882;9.210;2023-04-19T13:47:44;11.50;99.90
46335;DHT22;32051;48.882;9.210;2023-04-19T13:50:10;11.50;99.90
46335;DHT22;32051;48.882;9.210;2023-04-19T13:52:37;11.50;99.90
46335;DHT22;32051;48.882;9.210;2023-04-19T13:57:29;11.90;99.90
46335;DHT22;32051;48.882;9.210;2023-04-19T13:59:55;12.20;99.90
46335;DHT22;32051;48.882;9.210;2023-04-19T14:02:20;12.50;99.90
46335;DHT22;32051;48.882;9.210;2023-04-19T14:09:38;13.60;99.90
46335;DHT22;32051;48.882;9.210;2023-04-19T14:12:05;13.60;99.90
46335;DHT22;32051;48.882;9.210;2023-04-19T14:14:30;13.70;99.90
46335;DHT22;32051;48.882;9.210;2023-04-19T14:16:56;13.80;99.90
46335;DHT22;32051;48.882;9.210;2023-04-19T14:19:22;13.90;99.90
46335;DHT22;32051;48.882;9.210;2023-04-19T14:21:47;13.80;99.90
46335;DHT22;32051;48.882;9.210;2023-04-19T14:24:13;13.80;99.90
46335;DHT22;32051;48.882;9.210;2023-04-19T14:26:40;13.70;99.90
46335;DHT22;32051;48.882;9.210;2023-04-19T14:29:05;13.60;99.90
46335;DHT22;32051;48.882;9.210;2023-04-19T14:31:31;13.50;99.90
46335;DHT22;32051;48.882;9.210;2023-04-19T14:33:57;13.60;99.90
46335;DHT22;32051;48.882;9.210;2023-04-19T14:36:24;13.60;99.90
46335;DHT22;32051;48.882;9.210;2023-04-19T14:38:51;13.60;99.90
46335;DHT22;32051;48.882;9.210;2023-04-19T14:41:16;13.60;99.90
46335;DHT22;32051;48.882;9.210;2023-04-19T14:43:42;13.30;99.90
46335;DHT22;32051;48.882;9.210;2023-04-19T14:48:34;12.90;99.90
46335;DHT22;32051;48.882;9.210;2023-04-19T14:50:59;12.80;99.90
46335;DHT22;32051;48.882;9.210;2023-04-19T14:53:25;12.60;99.90
46335;DHT22;32051;48.882;9.210;2023-04-19T14:55:51;12.40;99.90
46335;DHT22;32051;48.882;9.210;2023-04-19T14:58:16;12.30;99.90
46335;DHT22;32051;48.882;9.210;2023-04-19T15:00:43;12.40;99.90
46335;DHT22;32051;48.882;9.210;2023-04-19T15:05:35;12.70;99.90
46335;DHT22;32051;48.882;9.210;2023-04-19T15:08:01;12.60;99.90
46335;DHT22;32051;48.882;9.210;2023-04-19T15:10:26;12.60;99.90
46335;DHT22;32051;48.882;9.210;2023-04-19T15:12:52;12.50;99.90
46335;DHT22;32051;48.882;9.210;2023-04-19T15:15:18;12.40;99.90
46335;DHT22;32051;48.882;9.210;2023-04-19T15:17:43;12.30;99.90
46335;DHT22;32051;48.882;9.210;2023-04-19T15:20:09;12.20;99.90
46335;DHT22;32051;48.882;9.210;2023-04-19T15:22:35;12.20;99.90
46335;DHT22;32051;48.882;9.210;2023-04-19T15:25:00;12.20;99.90
46335;DHT22;32051;48.882;9.210;2023-04-19T15:27:26;12.20;99.90
46335;DHT22;32051;48.882;9.210;2023-04-19T15:29:52;12.20;99.90
46335;DHT22;32051;48.882;9.210;2023-04-19T15:32:18;12.20;99.90
46335;DHT22;32051;48.882;9.210;2023-04-19T15:34:44;12.20;99.90
46335;DHT22;32051;48.882;9.210;2023-04-19T15:37:09;12.20;99.90
46335;DHT22;32051;48.882;9.210;2023-04-19T15:39:35;12.30;99.90
46335;DHT22;32051;48.882;9.210;2023-04-19T15:42:01;12.20;99.90
46335;DHT22;32051;48.882;9.210;2023-04-19T15:44:27;12.30;99.90
46335;DHT22;32051;48.882;9.210;2023-04-19T15:46:53;12.30;99.90
46335;DHT22;32051;48.882;9.210;2023-04-19T15:49:19;12.40;99.90
46335;DHT22;32051;48.882;9.210;2023-04-19T15:51:44;12.50;99.90
46335;DHT22;32051;48.882;9.210;2023-04-19T15:54:13;12.50;99.90
46335;DHT22;32051;48.882;9.210;2023-04-19T15:56:39;12.50;99.90
46335;DHT22;32051;48.882;9.210;2023-04-19T15:59:04;12.50;99.90
46335;DHT22;32051;48.882;9.210;2023-04-19T16:01:30;12.50;99.90
46335;DHT22;32051;48.882;9.210;2023-04-19T16:03:56;12.50;99.90
46335;DHT22;32051;48.882;9.210;2023-04-19T16:06:21;12.60;99.90
46335;DHT22;32051;48.882;9.210;2023-04-19T16:08:48;12.60;99.90
46335;DHT22;32051;48.882;9.210;2023-04-19T16:11:14;12.60;99.90
46335;DHT22;32051;48.882;9.210;2023-04-19T16:13:40;12.60;99.90
46335;DHT22;32051;48.882;9.210;2023-04-19T16:16:06;12.60;99.90
46335;DHT22;32051;48.882;9.210;2023-04-19T16:18:31;12.60;99.90
46335;DHT22;32051;48.882;9.210;2023-04-19T16:20:57;12.60;99.90
46335;DHT22;32051;48.882;9.210;2023-04-19T16:23:23;12.70;99.90
46335;DHT22;32051;48.882;9.210;2023-04-19T16:25:49;12.70;99.90
46335;DHT22;32051;48.882;9.210;2023-04-19T16:28:14;12.70;97.70
46335;DHT22;32051;48.882;9.210;2023-04-19T16:30:40;12.70;94.60
46335;DHT22;32051;48.882;9.210;2023-04-19T16:33:06;12.70;96.10
46335;DHT22;32051;48.882;9.210;2023-04-19T16:35:31;12.70;94.30
46335;DHT22;32051;48.882;9.210;2023-04-19T16:37:57;12.70;94.00
46335;DHT22;32051;48.882;9.210;2023-04-19T16:40:25;12.60;93.70
46335;DHT22;32051;48.882;9.210;2023-04-19T16:42:50;12.60;93.60
46335;DHT22;32051;48.882;9.210;2023-04-19T16:45:16;12.50;94.10
46335;DHT22;32051;48.882;9.210;2023-04-19T16:47:42;12.50;94.50
46335;DHT22;32051;48.882;9.210;2023-04-19T16:50:11;12.20;92.30
46335;DHT22;32051;48.882;9.210;2023-04-19T16:52:36;12.30;92.30
46335;DHT22;32051;48.882;9.210;2023-04-19T16:55:02;12.20;92.00
46335;DHT22;32051;48.882;9.210;2023-04-19T16:59:58;12.00;92.60
46335;DHT22;32051;48.882;9.210;2023-04-19T17:02:23;11.90;92.40
46335;DHT22;32051;48.882;9.210;2023-04-19T17:04:49;11.90;94.20
46335;DHT22;32051;48.882;9.210;2023-04-19T17:12:07;11.80;99.90
46335;DHT22;32051;48.882;9.210;2023-04-19T17:17:01;11.50;95.40
46335;DHT22;32051;48.882;9.210;2023-04-19T17:19:27;11.20;92.80
46335;DHT22;32051;48.882;9.210;2023-04-19T17:21:52;11.30;93.00
46335;DHT22;32051;48.882;9.210;2023-04-19T17:24:18;11.30;93.80
46335;DHT22;32051;48.882;9.210;2023-04-19T17:26:44;11.20;93.90
46335;DHT22;32051;48.882;9.210;2023-04-19T17:31:36;11.10;94.10
46335;DHT22;32051;48.882;9.210;2023-04-19T17:34:01;11.10;94.50
46335;DHT22;32051;48.882;9.210;2023-04-19T17:36:27;11.00;93.80
46335;DHT22;32051;48.882;9.210;2023-04-19T17:38:53;11.00;94.40
46335;DHT22;32051;48.882;9.210;2023-04-19T17:41:18;11.00;94.40
46335;DHT22;32051;48.882;9.210;2023-04-19T17:43:45;11.00;94.60
46335;DHT22;32051;48.882;9.210;2023-04-19T17:46:12;11.00;95.30
46335;DHT22;32051;48.882;9.210;2023-04-19T17:48:38;10.90;94.80
46335;DHT22;32051;48.882;9.210;2023-04-19T18:20:18;10.50;99.90
46335;DHT22;32051;48.882;9.210;2023-04-19T18:22:47;10.40;99.90
46335;DHT22;32051;48.882;9.210;2023-04-19T18:25:13;10.30;99.90
46335;DHT22;32051;48.882;9.210;2023-04-19T18:27:39;10.20;99.90
46335;DHT22;32051;48.882;9.210;2023-04-19T18:56:58;9.30;96.60
46335;DHT22;32051;48.882;9.210;2023-04-19T18:59:24;9.30;97.90
46335;DHT22;32051;48.882;9.210;2023-04-19T19:01:49;9.10;97.70
46335;DHT22;32051;48.882;9.210;2023-04-19T19:26:21;8.60;98.90
46335;DHT22;32051;48.882;9.210;2023-04-19T19:28:47;8.40;99.30
46335;DHT22;32051;48.882;9.210;2023-04-19T19:31:12;8.30;99.10
46335;DHT22;32051;48.882;9.210;2023-04-19T19:33:38;8.20;99.40
46335;DHT22;32051;48.882;9.210;2023-04-19T19:36:04;8.20;99.90
46335;DHT22;32051;48.882;9.210;2023-04-19T19:38:29;8.10;99.90
46335;DHT22;32051;48.882;9.210;2023-04-19T19:40:56;8.00;99.90
46335;DHT22;32051;48.882;9.210;2023-04-19T19:43:21;8.00;99.90
46335;DHT22;32051;48.882;9.210;2023-04-19T19:45:47;7.90;99.90
46335;DHT22;32051;48.882;9.210;2023-04-19T19:48:13;7.90;99.90
46335;DHT22;32051;48.882;9.210;2023-04-19T19:50:41;7.80;99.90
46335;DHT22;32051;48.882;9.210;2023-04-19T19:53:07;7.80;99.90
46335;DHT22;32051;48.882;9.210;2023-04-19T19:55:33;7.80;99.90
46335;DHT22;32051;48.882;9.210;2023-04-19T19:58:01;7.70;99.90
46335;DHT22;32051;48.882;9.210;2023-04-19T20:00:27;7.70;99.90
46335;DHT22;32051;48.882;9.210;2023-04-19T20:02:53;7.70;99.90
46335;DHT22;32051;48.882;9.210;2023-04-19T20:05:18;7.70;99.90
46335;DHT22;32051;48.882;9.210;2023-04-19T20:07:44;7.60;99.90
46335;DHT22;32051;48.882;9.210;2023-04-19T20:10:11;7.60;99.90
46335;DHT22;32051;48.882;9.210;2023-04-19T20:12:39;7.60;99.90
46335;DHT22;32051;48.882;9.210;2023-04-19T20:15:06;7.50;99.90
46335;DHT22;32051;48.882;9.210;2023-04-19T20:17:32;7.50;99.90
46335;DHT22;32051;48.882;9.210;2023-04-19T20:19:58;7.50;99.90
46335;DHT22;32051;48.882;9.210;2023-04-19T20:22:30;7.40;99.90
46335;DHT22;32051;48.882;9.210;2023-04-19T20:24:56;7.40;99.90
46335;DHT22;32051;48.882;9.210;2023-04-19T20:27:21;7.40;99.90
46335;DHT22;32051;48.882;9.210;2023-04-19T20:29:47;7.40;99.90
46335;DHT22;32051;48.882;9.210;2023-04-19T20:32:12;7.30;99.90
